sensor_id;sensor_type;location;lat;lon;timestamp;pressure;altitude;pressure_sealevel;temperature;humidity
52957;BME280;38819;42.692;23.342;2022-07-23T00:01:26;95520.25;;;24.26;49.83
52957;BME280;38819;42.692;23.342;2022-07-23T00:03:53;95528.13;;;24.23;49.91
52957;BME280;38819;42.692;23.342;2022-07-23T00:06:19;95527.06;;;24.32;49.73
52957;BME280;38819;42.692;23.342;2022-07-23T00:08:45;95530.47;;;24.21;50.02
52957;BME280;38819;42.692;23.342;2022-07-23T00:11:10;95541.50;;;24.21;50.33
52957;BME280;38819;42.692;23.342;2022-07-23T00:13:36;95519.84;;;24.23;50.00
52957;BME280;38819;42.692;23.342;2022-07-23T00:16:01;95537.59;;;24.22;49.90
52957;BME280;38819;42.692;23.342;2022-07-23T00:18:27;95530.78;;;24.16;50.54
52957;BME280;38819;42.692;23.342;2022-07-23T00:20:53;95534.97;;;24.07;50.41
52957;BME280;38819;42.692;23.342;2022-07-23T00:23:18;95536.59;;;24.08;50.75
52957;BME280;38819;42.692;23.342;2022-07-23T00:25:44;95538.66;;;23.88;51.06
52957;BME280;38819;42.692;23.342;2022-07-23T00:28:10;95547.72;;;23.88;50.91
52957;BME280;38819;42.692;23.342;2022-07-23T00:30:36;95542.56;;;23.86;50.95
52957;BME280;38819;42.692;23.342;2022-07-23T00:33:05;95545.28;;;23.83;50.77
52957;BME280;38819;42.692;23.342;2022-07-23T00:35:36;95548.44;;;23.85;50.29
52957;BME280;38819;42.692;23.342;2022-07-23T00:38:02;95546.44;;;23.82;50.88
52957;BME280;38819;42.692;23.342;2022-07-23T00:40:29;95544.00;;;23.80;51.27
52957;BME280;38819;42.692;23.342;2022-07-23T00:42:54;95539.53;;;23.72;51.12
52957;BME280;38819;42.692;23.342;2022-07-23T00:45:20;95537.09;;;23.67;51.32
52957;BME280;38819;42.692;23.342;2022-07-23T00:47:46;95540.13;;;23.58;51.61
52957;BME280;38819;42.692;23.342;2022-07-23T00:50:13;95544.53;;;23.63;51.52
52957;BME280;38819;42.692;23.342;2022-07-23T00:52:39;95544.91;;;23.61;51.52
52957;BME280;38819;42.692;23.342;2022-07-23T00:55:06;95548.34;;;23.55;51.47
52957;BME280;38819;42.692;23.342;2022-07-23T00:57:33;95543.81;;;23.66;51.50
52957;BME280;38819;42.692;23.342;2022-07-23T00:59:58;95547.59;;;23.58;51.50
52957;BME280;38819;42.692;23.342;2022-07-23T01:02:25;95541.59;;;23.52;51.39
52957;BME280;38819;42.692;23.342;2022-07-23T01:04:51;95544.34;;;23.52;51.27
52957;BME280;38819;42.692;23.342;2022-07-23T01:07:17;95533.75;;;23.54;50.00
52957;BME280;38819;42.692;23.342;2022-07-23T01:09:44;95534.56;;;23.55;50.03
52957;BME280;38819;42.692;23.342;2022-07-23T01:12:10;95538.00;;;23.48;49.87
52957;BME280;38819;42.692;23.342;2022-07-23T01:14:35;95541.47;;;23.45;50.11
52957;BME280;38819;42.692;23.342;2022-07-23T01:17:01;95541.41;;;23.41;50.17
52957;BME280;38819;42.692;23.342;2022-07-23T01:19:27;95536.75;;;23.45;49.82
52957;BME280;38819;42.692;23.342;2022-07-23T01:21:53;95537.41;;;23.39;50.18
52957;BME280;38819;42.692;23.342;2022-07-23T01:24:19;95537.88;;;23.41;49.64
52957;BME280;38819;42.692;23.342;2022-07-23T01:26:46;95535.44;;;23.36;49.92
52957;BME280;38819;42.692;23.342;2022-07-23T01:29:13;95534.59;;;23.35;49.57
52957;BME280;38819;42.692;23.342;2022-07-23T01:31:39;95533.34;;;23.29;49.55
52957;BME280;38819;42.692;23.342;2022-07-23T01:34:05;95526.16;;;23.24;49.75
52957;BME280;38819;42.692;23.342;2022-07-23T01:36:33;95531.31;;;23.26;49.56
52957;BME280;38819;42.692;23.342;2022-07-23T01:38:58;95526.91;;;23.21;49.89
52957;BME280;38819;42.692;23.342;2022-07-23T01:41:23;95521.22;;;23.10;50.72
52957;BME280;38819;42.692;23.342;2022-07-23T01:43:49;95522.00;;;23.11;50.96
52957;BME280;38819;42.692;23.342;2022-07-23T01:46:15;95525.84;;;23.06;50.74
52957;BME280;38819;42.692;23.342;2022-07-23T01:48:40;95533.66;;;23.04;50.76
52957;BME280;38819;42.692;23.342;2022-07-23T01:51:07;95528.03;;;22.97;51.15
52957;BME280;38819;42.692;23.342;2022-07-23T01:53:32;95525.19;;;22.93;50.94
52957;BME280;38819;42.692;23.342;2022-07-23T01:55:58;95529.41;;;22.87;51.21
52957;BME280;38819;42.692;23.342;2022-07-23T01:58:25;95533.38;;;22.90;50.82
52957;BME280;38819;42.692;23.342;2022-07-23T02:00:50;95532.53;;;22.86;51.25
52957;BME280;38819;42.692;23.342;2022-07-23T02:03:16;95532.88;;;22.84;51.56
52957;BME280;38819;42.692;23.342;2022-07-23T02:05:41;95531.56;;;22.78;51.50
52957;BME280;38819;42.692;23.342;2022-07-23T02:08:07;95535.22;;;22.82;51.65
52957;BME280;38819;42.692;23.342;2022-07-23T02:10:32;95533.13;;;22.75;51.78
52957;BME280;38819;42.692;23.342;2022-07-23T02:12:58;95533.03;;;22.72;51.74
52957;BME280;38819;42.692;23.342;2022-07-23T02:15:23;95538.03;;;22.66;51.89
52957;BME280;38819;42.692;23.342;2022-07-23T02:17:48;95533.25;;;22.63;51.96
52957;BME280;38819;42.692;23.342;2022-07-23T02:20:14;95531.31;;;22.64;52.29
52957;BME280;38819;42.692;23.342;2022-07-23T02:22:40;95542.31;;;22.64;52.04
52957;BME280;38819;42.692;23.342;2022-07-23T02:25:06;95540.72;;;22.63;52.50
52957;BME280;38819;42.692;23.342;2022-07-23T02:27:32;95533.53;;;22.58;52.52
52957;BME280;38819;42.692;23.342;2022-07-23T02:29:57;95536.94;;;22.51;52.62
52957;BME280;38819;42.692;23.342;2022-07-23T02:32:23;95539.41;;;22.56;52.59
52957;BME280;38819;42.692;23.342;2022-07-23T02:34:49;95531.50;;;22.55;52.59
52957;BME280;38819;42.692;23.342;2022-07-23T02:37:15;95532.75;;;22.57;52.60
52957;BME280;38819;42.692;23.342;2022-07-23T02:39:41;95542.16;;;22.56;52.33
52957;BME280;38819;42.692;23.342;2022-07-23T02:42:06;95546.09;;;22.55;52.90
52957;BME280;38819;42.692;23.342;2022-07-23T02:44:32;95543.69;;;22.54;52.48
52957;BME280;38819;42.692;23.342;2022-07-23T02:46:57;95552.97;;;22.46;52.73
52957;BME280;38819;42.692;23.342;2022-07-23T02:49:22;95547.38;;;22.42;52.84
52957;BME280;38819;42.692;23.342;2022-07-23T02:51:48;95548.09;;;22.39;53.06
52957;BME280;38819;42.692;23.342;2022-07-23T02:54:13;95550.78;;;22.35;53.35
52957;BME280;38819;42.692;23.342;2022-07-23T02:56:39;95556.66;;;22.34;53.46
52957;BME280;38819;42.692;23.342;2022-07-23T02:59:04;95556.72;;;22.37;53.26
52957;BME280;38819;42.692;23.342;2022-07-23T03:01:30;95569.69;;;22.37;53.30
52957;BME280;38819;42.692;23.342;2022-07-23T03:03:55;95563.13;;;22.26;53.29
52957;BME280;38819;42.692;23.342;2022-07-23T03:06:21;95566.59;;;22.23;53.31
52957;BME280;38819;42.692;23.342;2022-07-23T03:08:46;95562.56;;;22.20;53.25
52957;BME280;38819;42.692;23.342;2022-07-23T03:11:12;95563.03;;;22.22;53.36
52957;BME280;38819;42.692;23.342;2022-07-23T03:13:38;95578.81;;;22.25;53.44
52957;BME280;38819;42.692;23.342;2022-07-23T03:16:04;95578.38;;;22.23;53.74
52957;BME280;38819;42.692;23.342;2022-07-23T03:18:30;95578.81;;;22.25;53.92
52957;BME280;38819;42.692;23.342;2022-07-23T03:20:55;95575.19;;;22.21;53.51
52957;BME280;38819;42.692;23.342;2022-07-23T03:23:20;95583.94;;;22.27;53.18
52957;BME280;38819;42.692;23.342;2022-07-23T03:25:46;95584.09;;;22.30;52.92
52957;BME280;38819;42.692;23.342;2022-07-23T03:28:14;95590.81;;;22.33;52.94
52957;BME280;38819;42.692;23.342;2022-07-23T03:30:44;95587.44;;;22.24;53.35
52957;BME280;38819;42.692;23.342;2022-07-23T03:33:15;95591.69;;;22.21;53.21
52957;BME280;38819;42.692;23.342;2022-07-23T03:35:42;95587.53;;;22.27;53.26
52957;BME280;38819;42.692;23.342;2022-07-23T03:38:07;95588.22;;;22.24;53.13
52957;BME280;38819;42.692;23.342;2022-07-23T03:40:32;95587.53;;;22.27;53.42
52957;BME280;38819;42.692;23.342;2022-07-23T03:42:58;95587.53;;;22.27;52.89
52957;BME280;38819;42.692;23.342;2022-07-23T03:45:23;95591.59;;;22.33;52.97
52957;BME280;38819;42.692;23.342;2022-07-23T03:47:49;95590.66;;;22.45;52.39
52957;BME280;38819;42.692;23.342;2022-07-23T03:50:14;95592.34;;;22.50;52.15
52957;BME280;38819;42.692;23.342;2022-07-23T03:52:40;95592.44;;;22.53;52.33
52957;BME280;38819;42.692;23.342;2022-07-23T03:55:06;95597.75;;;22.62;52.61
52957;BME280;38819;42.692;23.342;2022-07-23T03:57:32;95585.34;;;22.72;52.33
52957;BME280;38819;42.692;23.342;2022-07-23T03:59:57;95596.00;;;22.73;52.64
52957;BME280;38819;42.692;23.342;2022-07-23T04:02:23;95594.19;;;22.81;52.53
52957;BME280;38819;42.692;23.342;2022-07-23T04:04:48;95593.75;;;22.79;52.86
52957;BME280;38819;42.692;23.342;2022-07-23T04:07:15;95599.09;;;22.72;53.24
52957;BME280;38819;42.692;23.342;2022-07-23T04:09:42;95589.69;;;22.73;53.37
52957;BME280;38819;42.692;23.342;2022-07-23T04:12:08;95596.09;;;22.77;53.24
52957;BME280;38819;42.692;23.342;2022-07-23T04:14:33;95601.31;;;22.82;52.93
52957;BME280;38819;42.692;23.342;2022-07-23T04:16:59;95601.38;;;22.86;52.82
52957;BME280;38819;42.692;23.342;2022-07-23T04:19:25;95595.22;;;22.92;52.23
52957;BME280;38819;42.692;23.342;2022-07-23T04:21:51;95594.84;;;22.94;51.79
52957;BME280;38819;42.692;23.342;2022-07-23T04:24:17;95596.50;;;22.99;52.09
52957;BME280;38819;42.692;23.342;2022-07-23T04:26:43;95593.59;;;22.91;51.96
52957;BME280;38819;42.692;23.342;2022-07-23T04:29:08;95598.09;;;22.80;52.01
52957;BME280;38819;42.692;23.342;2022-07-23T04:31:34;95606.66;;;22.75;51.84
52957;BME280;38819;42.692;23.342;2022-07-23T04:33:59;95603.16;;;22.78;51.66
52957;BME280;38819;42.692;23.342;2022-07-23T04:36:25;95596.88;;;22.78;51.81
52957;BME280;38819;42.692;23.342;2022-07-23T04:38:50;95603.69;;;22.84;51.74
52957;BME280;38819;42.692;23.342;2022-07-23T04:41:15;95598.81;;;22.97;51.49
52957;BME280;38819;42.692;23.342;2022-07-23T04:43:41;95598.47;;;22.98;51.54
52957;BME280;38819;42.692;23.342;2022-07-23T04:46:06;95598.59;;;23.05;51.14
52957;BME280;38819;42.692;23.342;2022-07-23T04:48:32;95599.63;;;23.17;51.22
52957;BME280;38819;42.692;23.342;2022-07-23T04:50:57;95612.81;;;23.27;50.63
52957;BME280;38819;42.692;23.342;2022-07-23T04:53:23;95618.13;;;23.36;50.88
52957;BME280;38819;42.692;23.342;2022-07-23T04:55:48;95611.00;;;23.35;50.85
52957;BME280;38819;42.692;23.342;2022-07-23T04:58:14;95605.25;;;23.43;50.76
52957;BME280;38819;42.692;23.342;2022-07-23T05:00:39;95614.31;;;23.44;50.85
52957;BME280;38819;42.692;23.342;2022-07-23T05:03:04;95616.84;;;23.53;50.56
52957;BME280;38819;42.692;23.342;2022-07-23T05:05:30;95615.75;;;23.57;50.70
52957;BME280;38819;42.692;23.342;2022-07-23T05:07:55;95609.16;;;23.65;49.86
52957;BME280;38819;42.692;23.342;2022-07-23T05:10:21;95616.22;;;23.63;50.01
52957;BME280;38819;42.692;23.342;2022-07-23T05:12:46;95603.47;;;23.55;50.16
52957;BME280;38819;42.692;23.342;2022-07-23T05:15:12;95619.47;;;23.68;49.68
52957;BME280;38819;42.692;23.342;2022-07-23T05:17:37;95611.25;;;23.72;49.84
52957;BME280;38819;42.692;23.342;2022-07-23T05:20:03;95622.78;;;23.78;49.46
52957;BME280;38819;42.692;23.342;2022-07-23T05:22:28;95619.38;;;23.84;49.17
52957;BME280;38819;42.692;23.342;2022-07-23T05:24:54;95620.16;;;23.85;49.73
52957;BME280;38819;42.692;23.342;2022-07-23T05:27:19;95625.50;;;23.97;49.22
52957;BME280;38819;42.692;23.342;2022-07-23T05:29:45;95621.94;;;23.97;49.20
52957;BME280;38819;42.692;23.342;2022-07-23T05:32:10;95620.84;;;24.01;48.95
52957;BME280;38819;42.692;23.342;2022-07-23T05:34:36;95617.06;;;24.13;48.57
52957;BME280;38819;42.692;23.342;2022-07-23T05:37:01;95629.34;;;24.16;48.90
52957;BME280;38819;42.692;23.342;2022-07-23T05:39:26;95619.16;;;24.20;48.63
52957;BME280;38819;42.692;23.342;2022-07-23T05:41:52;95621.00;;;24.39;48.06
52957;BME280;38819;42.692;23.342;2022-07-23T05:44:17;95623.50;;;24.48;47.85
52957;BME280;38819;42.692;23.342;2022-07-23T05:46:42;95623.63;;;24.55;47.65
52957;BME280;38819;42.692;23.342;2022-07-23T05:49:08;95623.63;;;24.55;47.64
52957;BME280;38819;42.692;23.342;2022-07-23T05:51:33;95621.59;;;24.52;47.67
52957;BME280;38819;42.692;23.342;2022-07-23T05:53:59;95622.53;;;24.59;47.77
52957;BME280;38819;42.692;23.342;2022-07-23T05:56:24;95613.94;;;24.68;47.47
52957;BME280;38819;42.692;23.342;2022-07-23T05:58:50;95621.50;;;24.71;47.32
52957;BME280;38819;42.692;23.342;2022-07-23T06:01:15;95618.41;;;24.76;47.22
52957;BME280;38819;42.692;23.342;2022-07-23T06:03:40;95622.44;;;24.83;47.00
52957;BME280;38819;42.692;23.342;2022-07-23T06:06:06;95619.72;;;24.86;47.16
52957;BME280;38819;42.692;23.342;2022-07-23T06:08:31;95616.66;;;24.95;46.57
52957;BME280;38819;42.692;23.342;2022-07-23T06:10:57;95614.31;;;24.97;46.62
52957;BME280;38819;42.692;23.342;2022-07-23T06:13:22;95608.53;;;25.09;46.05
52957;BME280;38819;42.692;23.342;2022-07-23T06:15:48;95603.66;;;24.99;46.89
52957;BME280;38819;42.692;23.342;2022-07-23T06:18:13;95607.66;;;25.02;46.71
52957;BME280;38819;42.692;23.342;2022-07-23T06:20:39;95611.47;;;24.90;47.64
52957;BME280;38819;42.692;23.342;2022-07-23T06:23:05;95613.38;;;24.86;48.26
52957;BME280;38819;42.692;23.342;2022-07-23T06:25:30;95607.34;;;24.76;48.28
52957;BME280;38819;42.692;23.342;2022-07-23T06:27:56;95607.38;;;24.80;48.18
52957;BME280;38819;42.692;23.342;2022-07-23T06:30:21;95606.66;;;24.83;48.03
52957;BME280;38819;42.692;23.342;2022-07-23T06:32:47;95606.66;;;24.83;48.28
52957;BME280;38819;42.692;23.342;2022-07-23T06:35:13;95598.81;;;24.89;47.98
52957;BME280;38819;42.692;23.342;2022-07-23T06:37:38;95602.50;;;25.00;47.79
52957;BME280;38819;42.692;23.342;2022-07-23T06:40:04;95601.41;;;25.08;47.65
52957;BME280;38819;42.692;23.342;2022-07-23T06:42:30;95603.56;;;25.26;47.27
52957;BME280;38819;42.692;23.342;2022-07-23T06:44:55;95608.50;;;25.40;46.35
52957;BME280;38819;42.692;23.342;2022-07-23T06:47:21;95607.47;;;25.55;45.64
52957;BME280;38819;42.692;23.342;2022-07-23T06:49:46;95611.53;;;25.68;45.22
52957;BME280;38819;42.692;23.342;2022-07-23T06:52:12;95601.38;;;25.80;45.13
52957;BME280;38819;42.692;23.342;2022-07-23T06:54:37;95597.00;;;25.79;44.92
52957;BME280;38819;42.692;23.342;2022-07-23T06:57:03;95601.00;;;25.81;44.20
52957;BME280;38819;42.692;23.342;2022-07-23T06:59:28;95599.00;;;25.78;43.95
52957;BME280;38819;42.692;23.342;2022-07-23T07:01:53;95593.81;;;25.73;43.84
52957;BME280;38819;42.692;23.342;2022-07-23T07:04:19;95603.25;;;25.68;43.62
52957;BME280;38819;42.692;23.342;2022-07-23T07:06:44;95595.81;;;25.76;43.66
52957;BME280;38819;42.692;23.342;2022-07-23T07:09:10;95595.50;;;25.85;43.70
52957;BME280;38819;42.692;23.342;2022-07-23T07:11:35;95593.56;;;25.93;43.58
52957;BME280;38819;42.692;23.342;2022-07-23T07:14:01;95589.31;;;26.02;43.35
52957;BME280;38819;42.692;23.342;2022-07-23T07:16:26;95592.59;;;26.19;43.33
52957;BME280;38819;42.692;23.342;2022-07-23T07:18:52;95592.66;;;26.26;43.01
52957;BME280;38819;42.692;23.342;2022-07-23T07:21:17;95589.84;;;26.19;43.04
52957;BME280;38819;42.692;23.342;2022-07-23T07:23:42;95588.31;;;26.25;42.74
52957;BME280;38819;42.692;23.342;2022-07-23T07:26:08;95581.28;;;26.38;42.60
52957;BME280;38819;42.692;23.342;2022-07-23T07:28:33;95582.78;;;26.29;42.83
52957;BME280;38819;42.692;23.342;2022-07-23T07:30:59;95577.63;;;26.27;42.22
52957;BME280;38819;42.692;23.342;2022-07-23T07:33:24;95575.75;;;26.46;41.89
52957;BME280;38819;42.692;23.342;2022-07-23T07:35:50;95574.25;;;26.59;41.58
52957;BME280;38819;42.692;23.342;2022-07-23T07:38:15;95567.09;;;26.51;42.02
52957;BME280;38819;42.692;23.342;2022-07-23T07:40:41;95570.72;;;26.62;42.19
52957;BME280;38819;42.692;23.342;2022-07-23T07:43:06;95568.06;;;26.76;41.59
52957;BME280;38819;42.692;23.342;2022-07-23T07:45:32;95566.09;;;26.88;41.63
52957;BME280;38819;42.692;23.342;2022-07-23T07:47:57;95563.69;;;26.79;41.58
52957;BME280;38819;42.692;23.342;2022-07-23T07:50:23;95570.44;;;26.82;41.63
52957;BME280;38819;42.692;23.342;2022-07-23T07:52:49;95568.09;;;26.87;41.13
52957;BME280;38819;42.692;23.342;2022-07-23T07:55:14;95569.25;;;26.86;41.43
52957;BME280;38819;42.692;23.342;2022-07-23T07:57:40;95562.16;;;26.85;40.92
52957;BME280;38819;42.692;23.342;2022-07-23T08:00:07;95561.38;;;26.95;40.97
52957;BME280;38819;42.692;23.342;2022-07-23T08:02:51;95561.78;;;26.94;41.14
52957;BME280;38819;42.692;23.342;2022-07-23T08:05:25;95551.13;;;27.03;40.29
52957;BME280;38819;42.692;23.342;2022-07-23T08:07:51;95552.69;;;27.08;40.27
52957;BME280;38819;42.692;23.342;2022-07-23T08:10:17;95557.13;;;27.23;40.29
52957;BME280;38819;42.692;23.342;2022-07-23T08:12:54;95550.75;;;27.23;40.26
52957;BME280;38819;42.692;23.342;2022-07-23T08:15:22;95551.19;;;27.28;40.32
52957;BME280;38819;42.692;23.342;2022-07-23T08:17:48;95549.63;;;27.34;39.25
52957;BME280;38819;42.692;23.342;2022-07-23T08:20:16;95547.28;;;27.44;39.44
52957;BME280;38819;42.692;23.342;2022-07-23T08:22:54;95546.06;;;27.41;39.26
52957;BME280;38819;42.692;23.342;2022-07-23T08:25:28;95548.84;;;27.45;39.21
52957;BME280;38819;42.692;23.342;2022-07-23T08:27:54;95547.28;;;27.54;39.17
52957;BME280;38819;42.692;23.342;2022-07-23T08:30:20;95551.63;;;27.59;39.38
52957;BME280;38819;42.692;23.342;2022-07-23T08:32:52;95536.59;;;27.64;39.07
52957;BME280;38819;42.692;23.342;2022-07-23T08:35:23;95543.34;;;27.73;38.92
52957;BME280;38819;42.692;23.342;2022-07-23T08:37:49;95541.34;;;27.78;38.78
52957;BME280;38819;42.692;23.342;2022-07-23T08:40:15;95539.75;;;27.91;38.69
52957;BME280;38819;42.692;23.342;2022-07-23T08:42:40;95542.94;;;27.93;38.44
52957;BME280;38819;42.692;23.342;2022-07-23T08:45:07;95537.75;;;27.91;38.73
52957;BME280;38819;42.692;23.342;2022-07-23T08:47:35;95540.16;;;28.11;38.09
52957;BME280;38819;42.692;23.342;2022-07-23T08:50:02;95538.56;;;28.06;38.46
52957;BME280;38819;42.692;23.342;2022-07-23T08:52:30;95539.38;;;28.11;38.36
52957;BME280;38819;42.692;23.342;2022-07-23T08:54:57;95528.22;;;28.21;38.76
52957;BME280;38819;42.692;23.342;2022-07-23T08:57:22;95523.09;;;28.23;38.57
52957;BME280;38819;42.692;23.342;2022-07-23T08:59:48;95524.25;;;28.30;38.44
52957;BME280;38819;42.692;23.342;2022-07-23T09:02:13;95529.38;;;28.35;37.78
52957;BME280;38819;42.692;23.342;2022-07-23T09:04:39;95530.97;;;28.39;37.62
52957;BME280;38819;42.692;23.342;2022-07-23T09:07:04;95528.16;;;28.46;37.44
52957;BME280;38819;42.692;23.342;2022-07-23T09:09:30;95519.84;;;28.57;37.62
52957;BME280;38819;42.692;23.342;2022-07-23T09:12:23;95528.56;;;28.59;37.54
52957;BME280;38819;42.692;23.342;2022-07-23T09:14:50;95514.25;;;28.61;37.51
52957;BME280;38819;42.692;23.342;2022-07-23T09:17:17;95524.13;;;28.73;38.07
52957;BME280;38819;42.692;23.342;2022-07-23T09:19:45;95522.91;;;28.85;38.09
52957;BME280;38819;42.692;23.342;2022-07-23T09:22:24;95521.25;;;28.94;37.46
52957;BME280;38819;42.692;23.342;2022-07-23T09:25:12;95518.41;;;29.05;37.11
52957;BME280;38819;42.692;23.342;2022-07-23T09:30:13;95509.66;;;29.17;36.76
52957;BME280;38819;42.692;23.342;2022-07-23T09:32:39;95513.16;;;29.25;36.09
52957;BME280;38819;42.692;23.342;2022-07-23T09:35:05;95508.34;;;29.33;35.09
52957;BME280;38819;42.692;23.342;2022-07-23T09:37:31;95509.13;;;29.37;35.41
52957;BME280;38819;42.692;23.342;2022-07-23T09:40:08;95508.66;;;29.46;35.62
52957;BME280;38819;42.692;23.342;2022-07-23T09:42:37;95509.78;;;29.52;34.79
52957;BME280;38819;42.692;23.342;2022-07-23T09:45:03;95498.25;;;29.57;33.50
52957;BME280;38819;42.692;23.342;2022-07-23T09:47:31;95495.03;;;29.62;33.46
52957;BME280;38819;42.692;23.342;2022-07-23T09:50:10;95488.97;;;29.71;33.31
52957;BME280;38819;42.692;23.342;2022-07-23T09:52:49;95490.53;;;29.79;33.35
52957;BME280;38819;42.692;23.342;2022-07-23T09:55:15;95495.63;;;29.88;32.46
52957;BME280;38819;42.692;23.342;2022-07-23T09:57:42;95491.56;;;29.96;31.93
52957;BME280;38819;42.692;23.342;2022-07-23T10:00:11;95486.78;;;29.97;32.59
52957;BME280;38819;42.692;23.342;2022-07-23T10:02:37;95487.88;;;30.06;32.70
52957;BME280;38819;42.692;23.342;2022-07-23T10:05:03;95478.25;;;30.15;32.31
52957;BME280;38819;42.692;23.342;2022-07-23T10:07:32;95473.78;;;30.24;32.14
52957;BME280;38819;42.692;23.342;2022-07-23T10:10:00;95479.25;;;30.32;31.38
52957;BME280;38819;42.692;23.342;2022-07-23T10:12:25;95476.06;;;30.33;31.11
52957;BME280;38819;42.692;23.342;2022-07-23T10:14:56;95474.00;;;30.41;31.28
52957;BME280;38819;42.692;23.342;2022-07-23T10:17:21;95466.28;;;30.52;30.90
52957;BME280;38819;42.692;23.342;2022-07-23T10:19:47;95468.66;;;30.57;30.19
52957;BME280;38819;42.692;23.342;2022-07-23T10:22:33;95459.81;;;30.62;30.55
52957;BME280;38819;42.692;23.342;2022-07-23T10:31:02;95445.59;;;30.84;30.18
52957;BME280;38819;42.692;23.342;2022-07-23T10:33:55;95443.06;;;30.93;29.21
52957;BME280;38819;42.692;23.342;2022-07-23T10:36:42;95445.78;;;31.00;27.61
52957;BME280;38819;42.692;23.342;2022-07-23T10:39:28;95440.94;;;31.05;27.75
52957;BME280;38819;42.692;23.342;2022-07-23T10:44:47;95431.19;;;31.16;27.02
52957;BME280;38819;42.692;23.342;2022-07-23T10:47:25;95429.13;;;31.20;27.01
52957;BME280;38819;42.692;23.342;2022-07-23T10:50:28;95433.78;;;31.31;26.94
52957;BME280;38819;42.692;23.342;2022-07-23T10:58:01;95416.06;;;31.41;26.76
52957;BME280;38819;42.692;23.342;2022-07-23T11:00:28;95413.16;;;31.48;25.89
52957;BME280;38819;42.692;23.342;2022-07-23T11:02:57;95415.06;;;31.55;24.35
52957;BME280;38819;42.692;23.342;2022-07-23T11:05:44;95409.00;;;31.60;24.34
52957;BME280;38819;42.692;23.342;2022-07-23T11:08:13;95404.91;;;31.65;24.82
52957;BME280;38819;42.692;23.342;2022-07-23T11:13:27;95398.34;;;31.75;21.25
52957;BME280;38819;42.692;23.342;2022-07-23T11:26:50;95383.13;;;32.00;22.40
52957;BME280;38819;42.692;23.342;2022-07-23T11:36:59;95375.50;;;32.24;21.34
52957;BME280;38819;42.692;23.342;2022-07-23T11:39:26;95370.19;;;32.29;21.41
52957;BME280;38819;42.692;23.342;2022-07-23T11:41:52;95371.25;;;32.36;21.15
52957;BME280;38819;42.692;23.342;2022-07-23T11:44:36;95368.03;;;32.37;21.27
52957;BME280;38819;42.692;23.342;2022-07-23T11:47:03;95365.94;;;32.41;21.31
52957;BME280;38819;42.692;23.342;2022-07-23T11:49:30;95360.63;;;32.47;21.14
52957;BME280;38819;42.692;23.342;2022-07-23T11:52:03;95359.59;;;32.57;21.19
52957;BME280;38819;42.692;23.342;2022-07-23T11:54:30;95349.09;;;32.65;21.12
52957;BME280;38819;42.692;23.342;2022-07-23T11:56:57;95354.94;;;32.71;20.99
52957;BME280;38819;42.692;23.342;2022-07-23T11:59:24;95358.47;;;32.75;20.45
52957;BME280;38819;42.692;23.342;2022-07-23T12:02:00;95357.31;;;32.72;20.66
52957;BME280;38819;42.692;23.342;2022-07-23T12:04:40;95355.41;;;32.85;20.60
52957;BME280;38819;42.692;23.342;2022-07-23T12:09:50;95354.88;;;32.91;19.83
52957;BME280;38819;42.692;23.342;2022-07-23T12:12:15;95346.84;;;32.93;20.27
52957;BME280;38819;42.692;23.342;2022-07-23T12:14:52;95346.50;;;32.91;21.02
52957;BME280;38819;42.692;23.342;2022-07-23T12:17:18;95347.56;;;32.97;20.39
52957;BME280;38819;42.692;23.342;2022-07-23T12:19:45;95345.53;;;32.97;20.13
52957;BME280;38819;42.692;23.342;2022-07-23T12:22:11;95337.47;;;32.99;19.99
52957;BME280;38819;42.692;23.342;2022-07-23T12:24:56;95333.81;;;33.02;19.61
52957;BME280;38819;42.692;23.342;2022-07-23T12:27:22;95328.94;;;33.07;20.05
52957;BME280;38819;42.692;23.342;2022-07-23T12:29:48;95338.00;;;33.11;20.24
52957;BME280;38819;42.692;23.342;2022-07-23T12:32:27;95331.22;;;33.12;20.01
52957;BME280;38819;42.692;23.342;2022-07-23T12:35:08;95334.34;;;33.14;19.98
52957;BME280;38819;42.692;23.342;2022-07-23T12:37:42;95327.03;;;33.20;20.45
52957;BME280;38819;42.692;23.342;2022-07-23T12:40:31;95315.41;;;33.21;20.27
52957;BME280;38819;42.692;23.342;2022-07-23T12:43:09;95328.16;;;33.22;20.49
52957;BME280;38819;42.692;23.342;2022-07-23T12:48:24;95309.72;;;33.25;18.95
52957;BME280;38819;42.692;23.342;2022-07-23T12:50:50;95311.44;;;33.35;18.76
52957;BME280;38819;42.692;23.342;2022-07-23T12:55:42;95310.91;;;33.40;18.84
52957;BME280;38819;42.692;23.342;2022-07-23T12:58:10;95310.13;;;33.40;18.28
52957;BME280;38819;42.692;23.342;2022-07-23T13:01:09;95310.81;;;33.44;18.04
52957;BME280;38819;42.692;23.342;2022-07-23T13:03:40;95312.94;;;33.40;18.17
52957;BME280;38819;42.692;23.342;2022-07-23T13:06:10;95308.19;;;33.37;18.37
52957;BME280;38819;42.692;23.342;2022-07-23T13:08:38;95305.84;;;33.35;17.30
52957;BME280;38819;42.692;23.342;2022-07-23T13:11:05;95300.91;;;33.39;17.76
52957;BME280;38819;42.692;23.342;2022-07-23T13:13:33;95305.97;;;33.45;16.92
52957;BME280;38819;42.692;23.342;2022-07-23T13:15:59;95302.50;;;33.40;17.11
52957;BME280;38819;42.692;23.342;2022-07-23T13:18:26;95302.06;;;33.42;17.95
52957;BME280;38819;42.692;23.342;2022-07-23T13:20:52;95299.41;;;33.51;17.64
52957;BME280;38819;42.692;23.342;2022-07-23T13:23:18;95298.97;;;33.53;17.52
52957;BME280;38819;42.692;23.342;2022-07-23T13:25:44;95305.28;;;33.57;18.14
52957;BME280;38819;42.692;23.342;2022-07-23T13:28:10;95296.88;;;33.57;17.41
52957;BME280;38819;42.692;23.342;2022-07-23T13:30:35;95299.56;;;33.60;17.43
52957;BME280;38819;42.692;23.342;2022-07-23T13:33:03;95293.19;;;33.60;17.16
52957;BME280;38819;42.692;23.342;2022-07-23T13:35:29;95283.09;;;33.63;17.56
52957;BME280;38819;42.692;23.342;2022-07-23T13:37:54;95285.47;;;33.64;17.67